Time;durP1;ratioP1;P1;durP2;ratioP2;P2;SDS_P1;SDS_P2;PMS_P1;PMS_P2;Temp;Humidity;BMP_temperature;BMP_pressure;BME280_temperature;BME280_humidity;BME280_pressure;Samples;Min_cycle;Max_cycle;Signal;HPM_P1;HPM_P2
2023/05/23 00:00:36;;;;;;;1999.90;999.90;;;17.20;99.90;;;;;;5070652;28;20431;-73
2023/05/23 00:03:04;;;;;;;1999.90;999.90;;;17.10;99.90;;;;;;5067015;28;20436;-73
2023/05/23 00:05:31;;;;;;;1999.90;999.90;;;17.10;99.90;;;;;;5070111;28;20423;-74
2023/05/23 00:07:57;;;;;;;1999.90;999.90;;;17.20;99.90;;;;;;5071681;28;20488;-74
2023/05/23 00:10:24;;;;;;;1999.90;999.90;;;17.20;99.90;;;;;;5070045;28;20443;-74
2023/05/23 00:12:51;;;;;;;1999.90;999.90;;;17.20;99.90;;;;;;5068304;28;20797;-74
2023/05/23 00:15:18;;;;;;;1999.90;999.90;;;17.20;99.90;;;;;;5072533;28;20473;-74
2023/05/23 00:17:45;;;;;;;1999.90;999.90;;;17.30;99.90;;;;;;5072384;28;20420;-74
2023/05/23 00:20:14;;;;;;;1999.90;999.90;;;17.10;99.90;;;;;;5072424;28;20415;-74
2023/05/23 00:22:41;;;;;;;1999.90;999.90;;;17.00;99.90;;;;;;5072190;28;20419;-74
2023/05/23 00:25:08;;;;;;;1999.90;999.90;;;17.00;99.90;;;;;;5071118;28;20427;-74
2023/05/23 00:27:35;;;;;;;1999.90;999.90;;;16.80;99.90;;;;;;5072259;28;20470;-75
2023/05/23 00:30:02;;;;;;;1999.90;999.90;;;16.80;99.90;;;;;;5072192;28;20426;-71
2023/05/23 00:32:28;;;;;;;1999.90;999.90;;;16.80;99.90;;;;;;5072674;28;20509;-75
2023/05/23 00:34:57;;;;;;;1999.90;999.90;;;16.70;99.90;;;;;;5074739;28;20402;-72
2023/05/23 00:37:25;;;;;;;1999.90;999.90;;;16.80;99.90;;;;;;5071884;28;20430;-74
2023/05/23 00:39:52;;;;;;;1999.90;999.90;;;16.80;99.90;;;;;;5071121;28;20913;-75
2023/05/23 00:42:18;;;;;;;1999.90;999.90;;;16.90;99.90;;;;;;5069576;28;20921;-74
2023/05/23 00:44:47;;;;;;;1999.90;999.90;;;16.80;99.90;;;;;;5070828;28;20481;-74
2023/05/23 00:47:13;;;;;;;1999.90;999.90;;;16.80;99.90;;;;;;5069646;28;20505;-74
2023/05/23 00:49:40;;;;;;;1999.90;999.90;;;16.70;99.90;;;;;;5065546;28;21018;-74
2023/05/23 00:52:07;;;;;;;1999.90;999.90;;;16.80;99.90;;;;;;5070508;28;20530;-74
2023/05/23 00:54:36;;;;;;;1999.90;999.90;;;16.70;99.90;;;;;;5070793;28;20427;-75
2023/05/23 00:57:03;;;;;;;1999.90;999.90;;;16.70;99.90;;;;;;5069673;28;20497;-75
2023/05/23 00:59:30;;;;;;;1999.90;999.90;;;16.70;99.90;;;;;;5067818;28;20937;-75
2023/05/23 01:01:59;;;;;;;1999.90;999.90;;;16.80;99.90;;;;;;5067600;28;20500;-75
2023/05/23 01:04:27;;;;;;;1999.90;999.90;;;16.90;99.90;;;;;;5069528;28;20431;-75
2023/05/23 01:06:54;;;;;;;1999.90;999.90;;;16.80;99.90;;;;;;5067816;28;20430;-73
2023/05/23 01:09:23;;;;;;;1999.90;999.90;;;16.80;99.90;;;;;;5070487;28;20432;-74
2023/05/23 01:12:02;;;;;;;1999.90;999.90;;;16.80;99.90;;;;;;5070089;28;20428;-74
2023/05/23 01:14:35;;;;;;;1999.90;999.90;;;16.80;99.90;;;;;;5068903;28;20431;-74
2023/05/23 01:17:10;;;;;;;1999.90;999.90;;;16.90;99.90;;;;;;5069949;28;20435;-74
2023/05/23 01:19:59;;;;;;;1999.90;999.90;;;16.80;99.90;;;;;;5069904;28;20431;-74
2023/05/23 01:22:39;;;;;;;1999.90;999.90;;;16.80;99.90;;;;;;5070365;28;20419;-75
2023/05/23 01:25:16;;;;;;;1999.90;999.90;;;16.60;99.90;;;;;;5069271;28;20430;-73
2023/05/23 01:27:49;;;;;;;1999.90;999.90;;;16.50;99.90;;;;;;5068132;28;20424;-74
2023/05/23 01:30:19;;;;;;;1999.90;999.90;;;16.40;99.90;;;;;;5069866;28;20431;-75
2023/05/23 01:32:47;;;;;;;1999.90;999.90;;;16.30;99.90;;;;;;5061420;28;20945;-73
2023/05/23 01:35:18;;;;;;;1999.90;999.90;;;16.40;99.90;;;;;;5064168;28;20427;-74
2023/05/23 01:37:45;;;;;;;1999.90;999.90;;;16.40;99.90;;;;;;5067271;28;20438;-76
2023/05/23 01:40:12;;;;;;;1999.90;999.90;;;16.40;99.90;;;;;;5068317;28;20786;-74
2023/05/23 01:42:39;;;;;;;1999.90;999.90;;;16.20;99.90;;;;;;5068564;28;20461;-72
2023/05/23 01:45:08;;;;;;;1999.90;999.90;;;16.30;99.90;;;;;;5068491;28;20462;-75
2023/05/23 01:47:36;;;;;;;1999.90;999.90;;;16.20;99.90;;;;;;5067529;28;20431;-74
2023/05/23 01:50:03;;;;;;;1999.90;999.90;;;16.20;99.90;;;;;;5069229;28;20462;-74
2023/05/23 01:52:30;;;;;;;1999.90;999.90;;;16.00;99.90;;;;;;5067517;28;20427;-75
2023/05/23 01:54:58;;;;;;;1999.90;999.90;;;16.00;99.90;;;;;;5069066;28;20427;-74
2023/05/23 01:57:26;;;;;;;1999.90;999.90;;;16.00;99.90;;;;;;5069215;28;20813;-74
2023/05/23 01:59:52;;;;;;;1999.90;999.90;;;15.90;99.90;;;;;;5067345;28;20806;-74
2023/05/23 02:02:20;;;;;;;1999.90;999.90;;;15.90;99.90;;;;;;5067949;28;20463;-74
2023/05/23 02:04:49;;;;;;;1999.90;999.90;;;15.90;99.90;;;;;;5069433;28;20457;-74
2023/05/23 02:07:15;;;;;;;1999.90;999.90;;;16.00;99.90;;;;;;5069290;28;20458;-74
2023/05/23 02:09:42;;;;;;;1999.90;999.90;;;16.00;99.90;;;;;;5067496;28;20478;-74
2023/05/23 02:12:09;;;;;;;1999.90;999.90;;;16.10;99.90;;;;;;5069768;28;20497;-73
2023/05/23 02:14:36;;;;;;;1999.90;999.90;;;16.20;99.90;;;;;;5070383;28;20426;-76
2023/05/23 02:17:03;;;;;;;1999.90;999.90;;;16.40;99.90;;;;;;5072415;28;20434;-76
2023/05/23 02:19:31;;;;;;;1999.90;999.90;;;16.50;99.90;;;;;;5070157;28;20420;-75
2023/05/23 02:21:57;;;;;;;1999.90;999.90;;;16.50;99.90;;;;;;5069052;28;20439;-75
2023/05/23 02:24:24;;;;;;;1999.90;999.90;;;16.50;99.90;;;;;;5070246;28;20759;-77
2023/05/23 02:26:51;;;;;;;1999.90;999.90;;;16.60;99.90;;;;;;5069694;28;20505;-76
2023/05/23 02:29:18;;;;;;;1999.90;999.90;;;16.50;99.90;;;;;;5070218;28;20484;-75
2023/05/23 02:31:44;;;;;;;1999.90;999.90;;;16.40;99.90;;;;;;5069973;28;20753;-76
2023/05/23 02:34:11;;;;;;;1999.90;999.90;;;16.30;99.90;;;;;;5069330;28;20450;-76
2023/05/23 02:36:39;;;;;;;1999.90;999.90;;;16.30;99.90;;;;;;5069560;28;20411;-75
2023/05/23 02:39:06;;;;;;;1999.90;999.90;;;16.30;99.90;;;;;;5068620;28;20937;-76
2023/05/23 02:41:32;;;;;;;1999.90;999.90;;;16.30;99.90;;;;;;5068131;28;20489;-73
2023/05/23 02:43:59;;;;;;;1999.90;999.90;;;16.20;99.90;;;;;;5067115;28;20450;-74
2023/05/23 02:46:26;;;;;;;1999.90;999.90;;;16.10;99.90;;;;;;5068402;28;20438;-74
2023/05/23 02:48:52;;;;;;;1999.90;999.90;;;16.10;99.90;;;;;;5072050;28;20427;-74
2023/05/23 02:51:20;;;;;;;1999.90;999.90;;;16.10;99.90;;;;;;5072035;28;21213;-70
2023/05/23 02:53:48;;;;;;;1999.90;999.90;;;16.10;99.90;;;;;;5072536;28;20956;-73
2023/05/23 02:56:14;;;;;;;1999.90;999.90;;;16.20;99.90;;;;;;5069290;28;20431;-71
2023/05/23 02:58:41;;;;;;;1999.90;999.90;;;16.10;99.90;;;;;;5070436;28;20887;-74
2023/05/23 03:01:08;;;;;;;1999.90;999.90;;;16.10;99.90;;;;;;5072769;28;20431;-74
2023/05/23 03:03:35;;;;;;;1999.90;999.90;;;16.00;99.90;;;;;;5072230;28;20431;-74
2023/05/23 03:06:03;;;;;;;1999.90;999.90;;;15.90;99.90;;;;;;5070818;28;20433;-73
2023/05/23 03:08:30;;;;;;;1999.90;999.90;;;15.90;99.90;;;;;;5071034;28;20925;-73
2023/05/23 03:10:58;;;;;;;1999.90;999.90;;;16.00;99.90;;;;;;5072277;28;20481;-73
2023/05/23 03:13:24;;;;;;;1999.90;999.90;;;16.00;99.90;;;;;;5071792;28;20438;-74
2023/05/23 03:15:51;;;;;;;1999.90;999.90;;;15.90;99.90;;;;;;5071712;28;20447;-74
2023/05/23 03:18:18;;;;;;;1999.90;999.90;;;16.00;99.90;;;;;;5067598;28;20435;-76
2023/05/23 03:20:44;;;;;;;1999.90;999.90;;;16.10;99.90;;;;;;5070621;28;20458;-76
2023/05/23 03:23:11;;;;;;;1999.90;999.90;;;16.10;99.90;;;;;;5071093;28;20465;-72
2023/05/23 03:25:37;;;;;;;1999.90;999.90;;;16.20;99.90;;;;;;5071073;28;20871;-71
2023/05/23 03:28:05;;;;;;;1999.90;999.90;;;16.30;99.90;;;;;;5071814;28;20427;-74
2023/05/23 03:30:32;;;;;;;1999.90;999.90;;;16.30;99.90;;;;;;5071558;28;20428;-75
2023/05/23 03:32:58;;;;;;;1999.90;999.90;;;16.30;99.90;;;;;;5069344;28;20431;-71
2023/05/23 03:35:25;;;;;;;1999.90;999.90;;;16.30;99.90;;;;;;5070453;28;20933;-74
2023/05/23 03:37:52;;;;;;;1999.90;999.90;;;16.30;99.90;;;;;;5071881;28;20920;-74
2023/05/23 03:40:19;;;;;;;1999.90;999.90;;;16.30;99.90;;;;;;5071972;28;20428;-74
2023/05/23 03:42:48;;;;;;;1999.90;999.90;;;16.30;99.90;;;;;;5069763;28;20489;-73
2023/05/23 03:45:17;;;;;;;1999.90;999.90;;;16.30;99.90;;;;;;5070961;28;20939;-74
2023/05/23 03:47:43;;;;;;;1999.90;999.90;;;16.20;99.90;;;;;;5070172;28;20841;-73
2023/05/23 03:50:10;;;;;;;1999.90;999.90;;;16.10;99.90;;;;;;5070021;28;20432;-73
2023/05/23 03:52:37;;;;;;;1999.90;999.90;;;16.00;99.90;;;;;;5071133;28;20474;-75
2023/05/23 03:55:04;;;;;;;1999.90;999.90;;;15.90;99.90;;;;;;5071489;28;20427;-74
2023/05/23 03:57:31;;;;;;;1999.90;999.90;;;15.80;99.90;;;;;;5071381;28;20458;-74
2023/05/23 03:59:57;;;;;;;1999.90;999.90;;;15.70;99.90;;;;;;5069493;28;20431;-72
2023/05/23 04:02:25;;;;;;;1999.90;999.90;;;15.70;99.90;;;;;;5069631;28;21087;-73
2023/05/23 04:04:52;;;;;;;1999.90;999.90;;;15.60;99.90;;;;;;5070196;28;20843;-73
2023/05/23 04:07:19;;;;;;;1999.90;999.90;;;15.60;99.90;;;;;;5069464;28;20934;-73
2023/05/23 04:09:46;;;;;;;1999.90;999.90;;;15.50;99.90;;;;;;5071000;28;20504;-76
2023/05/23 04:12:12;;;;;;;1999.90;999.90;;;15.40;99.90;;;;;;5068076;28;20809;-75
2023/05/23 04:14:39;;;;;;;1999.90;999.90;;;15.30;99.90;;;;;;5072361;28;20419;-76
2023/05/23 04:17:07;;;;;;;1999.90;999.90;;;15.30;99.90;;;;;;5074446;28;20481;-76
2023/05/23 04:19:35;;;;;;;1999.90;999.90;;;15.20;99.90;;;;;;5072819;28;20415;-75
2023/05/23 04:22:02;;;;;;;1999.90;999.90;;;15.20;99.90;;;;;;5072068;28;20905;-76
2023/05/23 04:24:28;;;;;;;1999.90;999.90;;;15.30;99.90;;;;;;5072247;28;20481;-73
2023/05/23 04:26:56;;;;;;;1999.90;999.90;;;15.30;99.90;;;;;;5070730;28;20423;-74
2023/05/23 04:29:25;;;;;;;1999.90;999.90;;;15.30;99.90;;;;;;5071803;28;20774;-74
2023/05/23 04:31:51;;;;;;;1999.90;999.90;;;15.40;99.90;;;;;;5071735;28;20415;-73
2023/05/23 04:34:21;;;;;;;1999.90;999.90;;;15.40;99.90;;;;;;5072154;28;20415;-74
2023/05/23 04:36:48;;;;;;;1999.90;999.90;;;15.50;99.90;;;;;;5071619;28;20910;-72
2023/05/23 04:39:15;;;;;;;1999.90;999.90;;;15.50;99.90;;;;;;5070583;28;20846;-74
2023/05/23 04:41:44;;;;;;;1999.90;999.90;;;15.60;99.90;;;;;;5070457;28;20929;-76
2023/05/23 04:44:10;;;;;;;1999.90;999.90;;;15.70;99.90;;;;;;5070359;28;20482;-74
2023/05/23 04:46:40;;;;;;;1999.90;999.90;;;15.80;99.90;;;;;;5068566;28;20423;-74
2023/05/23 04:49:07;;;;;;;1999.90;999.90;;;15.70;99.90;;;;;;5067223;28;20481;-75
2023/05/23 04:51:34;;;;;;;1999.90;999.90;;;15.80;99.90;;;;;;5060564;28;20432;-75
2023/05/23 04:54:02;;;;;;;1999.90;999.90;;;15.80;99.90;;;;;;5069374;28;20911;-76
2023/05/23 04:56:28;;;;;;;1999.90;999.90;;;15.80;99.90;;;;;;5069339;28;20427;-74
2023/05/23 04:58:55;;;;;;;1999.90;999.90;;;15.80;99.90;;;;;;5069817;28;20488;-73
2023/05/23 05:01:23;;;;;;;1999.90;999.90;;;15.80;99.90;;;;;;5069994;28;20468;-73
2023/05/23 05:03:50;;;;;;;1999.90;999.90;;;15.80;99.90;;;;;;5068398;28;20438;-73
2023/05/23 05:06:17;;;;;;;1999.90;999.90;;;15.80;99.90;;;;;;5069169;28;20435;-71
2023/05/23 05:08:44;;;;;;;1999.90;999.90;;;15.80;99.90;;;;;;5069722;28;20427;-74
2023/05/23 05:11:12;;;;;;;1999.90;999.90;;;15.70;99.90;;;;;;5068390;28;20432;-73
2023/05/23 05:13:38;;;;;;;1999.90;999.90;;;15.70;99.90;;;;;;5069844;28;20435;-72
2023/05/23 05:16:05;;;;;;;1999.90;999.90;;;15.70;99.90;;;;;;5066392;28;20899;-74
2023/05/23 05:18:32;;;;;;;1999.90;999.90;;;15.80;99.90;;;;;;5068229;28;20427;-76
2023/05/23 05:20:59;;;;;;;1999.90;999.90;;;15.80;99.90;;;;;;5068453;28;20427;-74
2023/05/23 05:23:27;;;;;;;1999.90;999.90;;;15.90;99.90;;;;;;5069638;28;20459;-74
2023/05/23 05:25:55;;;;;;;1999.90;999.90;;;15.80;99.90;;;;;;5065334;28;20474;-75
2023/05/23 05:28:23;;;;;;;1999.90;999.90;;;15.70;99.90;;;;;;5066399;28;20428;-74
2023/05/23 05:30:53;;;;;;;1999.90;999.90;;;15.70;99.90;;;;;;5067447;28;20816;-73
2023/05/23 05:33:19;;;;;;;1999.90;999.90;;;15.80;99.90;;;;;;5066378;28;20459;-74
2023/05/23 05:35:46;;;;;;;1999.90;999.90;;;15.70;99.90;;;;;;5071149;28;20419;-70
2023/05/23 05:38:13;;;;;;;1999.90;999.90;;;15.70;99.90;;;;;;5073201;28;20431;-74
2023/05/23 05:40:39;;;;;;;1999.90;999.90;;;15.70;99.90;;;;;;5082641;28;20406;-73
2023/05/23 05:43:06;;;;;;;1999.90;999.90;;;15.70;99.90;;;;;;5091631;28;20449;-72
2023/05/23 05:45:34;;;;;;;1999.90;999.90;;;15.80;99.90;;;;;;5090955;28;20507;-74
2023/05/23 05:48:01;;;;;;;1999.90;999.90;;;15.80;99.90;;;;;;5069506;28;20775;-75
2023/05/23 05:50:27;;;;;;;1999.90;999.90;;;15.80;99.90;;;;;;5067986;28;20493;-70
2023/05/23 05:52:54;;;;;;;1999.90;999.90;;;15.80;99.90;;;;;;5069093;28;20986;-75
2023/05/23 05:55:20;;;;;;;1999.90;999.90;;;15.80;99.90;;;;;;5068508;28;20431;-73
2023/05/23 05:57:47;;;;;;;1999.90;999.90;;;15.90;99.90;;;;;;5068953;28;20921;-73
2023/05/23 06:00:17;;;;;;;1999.90;999.90;;;15.90;99.90;;;;;;5068463;28;20459;-71
2023/05/23 06:02:46;;;;;;;1999.90;999.90;;;15.90;99.90;;;;;;5067278;28;21717;-73
2023/05/23 06:05:15;;;;;;;1999.90;999.90;;;16.00;99.90;;;;;;5068881;28;20435;-73
2023/05/23 06:07:42;;;;;;;1999.90;999.90;;;16.00;99.90;;;;;;5068555;28;20430;-73
2023/05/23 06:10:11;;;;;;;1999.90;999.90;;;16.10;99.90;;;;;;5060729;28;20434;-75
2023/05/23 06:12:38;;;;;;;1999.90;999.90;;;16.10;99.90;;;;;;5067941;28;20431;-74
2023/05/23 06:15:05;;;;;;;1999.90;999.90;;;16.00;99.90;;;;;;5068913;28;20427;-72
2023/05/23 06:17:32;;;;;;;1999.90;999.90;;;16.00;99.90;;;;;;5068563;28;20447;-74
2023/05/23 06:20:00;;;;;;;1999.90;999.90;;;16.00;99.90;;;;;;5068058;28;20516;-74
2023/05/23 06:22:27;;;;;;;1999.90;999.90;;;16.00;99.90;;;;;;5067615;28;20435;-73
2023/05/23 06:24:53;;;;;;;1999.90;999.90;;;16.10;99.90;;;;;;5068174;28;20439;-76
2023/05/23 06:27:20;;;;;;;1999.90;999.90;;;16.20;99.90;;;;;;5068566;28;20455;-72
2023/05/23 06:29:46;;;;;;;1999.90;999.90;;;16.40;99.90;;;;;;5068427;28;20477;-75
2023/05/23 06:32:13;;;;;;;1999.90;999.90;;;16.60;99.90;;;;;;5068882;28;20493;-74
2023/05/23 06:34:40;;;;;;;1999.90;999.90;;;16.60;99.90;;;;;;5069137;28;20431;-74
2023/05/23 06:37:07;;;;;;;1999.90;999.90;;;16.70;99.90;;;;;;5068056;28;20485;-74
2023/05/23 06:39:34;;;;;;;1999.90;999.90;;;16.70;99.90;;;;;;5068859;28;20432;-74
2023/05/23 06:42:01;;;;;;;1999.90;999.90;;;16.70;99.90;;;;;;5068767;28;20431;-75
2023/05/23 06:44:27;;;;;;;1999.90;999.90;;;16.90;99.90;;;;;;5063340;28;20477;-74
2023/05/23 06:46:56;;;;;;;1999.90;999.90;;;16.90;99.90;;;;;;5063187;28;20455;-76
2023/05/23 06:49:23;;;;;;;1999.90;999.90;;;16.80;99.90;;;;;;5068032;28;20427;-73
2023/05/23 06:51:49;;;;;;;1999.90;999.90;;;16.80;99.90;;;;;;5065919;28;20508;-77
2023/05/23 06:54:17;;;;;;;1999.90;999.90;;;16.80;99.90;;;;;;5064622;28;20532;-77
2023/05/23 06:56:45;;;;;;;1999.90;999.90;;;17.00;99.90;;;;;;5066548;28;20914;-75
2023/05/23 06:59:11;;;;;;;1999.90;999.90;;;16.90;99.90;;;;;;5063537;28;20969;-74
2023/05/23 07:01:38;;;;;;;1999.90;999.90;;;16.90;99.90;;;;;;5065698;28;20463;-71
2023/05/23 07:04:04;;;;;;;1999.90;999.90;;;16.90;99.90;;;;;;5067023;28;21034;-74
2023/05/23 07:06:31;;;;;;;1999.90;999.90;;;16.70;99.90;;;;;;5066884;28;20435;-73
2023/05/23 07:08:58;;;;;;;1999.90;999.90;;;16.50;99.90;;;;;;5066896;28;20848;-76
2023/05/23 07:11:26;;;;;;;1999.90;999.90;;;16.50;99.90;;;;;;5066517;28;20488;-72
2023/05/23 07:13:52;;;;;;;1999.90;999.90;;;16.50;99.90;;;;;;5066155;28;20465;-76
2023/05/23 07:16:19;;;;;;;1999.90;999.90;;;16.40;99.90;;;;;;5065863;28;20512;-74
2023/05/23 07:18:45;;;;;;;1999.90;999.90;;;16.20;99.90;;;;;;5066688;28;20435;-75
2023/05/23 07:21:12;;;;;;;1999.90;999.90;;;16.30;99.90;;;;;;5067029;28;20431;-74
2023/05/23 07:23:40;;;;;;;1999.90;999.90;;;16.40;99.90;;;;;;5067091;28;20431;-71
2023/05/23 07:26:08;;;;;;;1999.90;999.90;;;16.50;99.90;;;;;;5067109;28;20455;-73
2023/05/23 07:28:37;;;;;;;1999.90;999.90;;;16.50;99.90;;;;;;5068031;28;20454;-74
2023/05/23 07:31:03;;;;;;;1999.90;999.90;;;16.40;99.90;;;;;;5068078;28;20507;-74
2023/05/23 07:33:32;;;;;;;1999.90;999.90;;;16.20;99.90;;;;;;5068372;28;20458;-75
2023/05/23 07:35:59;;;;;;;1999.90;999.90;;;16.30;99.90;;;;;;5064474;28;20431;-74
2023/05/23 07:38:26;;;;;;;1999.90;999.90;;;16.40;99.90;;;;;;5070458;28;20481;-74
2023/05/23 07:40:53;;;;;;;1999.90;999.90;;;16.50;99.90;;;;;;5081186;28;21053;-74
2023/05/23 07:43:20;;;;;;;1999.90;999.90;;;16.20;99.90;;;;;;5093288;28;20410;-74
2023/05/23 07:45:47;;;;;;;1999.90;999.90;;;16.30;99.90;;;;;;5093370;28;20507;-74
2023/05/23 07:48:14;;;;;;;1999.90;999.90;;;16.40;99.90;;;;;;5075838;28;20466;-71
2023/05/23 07:50:41;;;;;;;1999.90;999.90;;;16.50;99.90;;;;;;5065948;28;20976;-74
2023/05/23 07:53:07;;;;;;;1999.90;999.90;;;16.60;99.90;;;;;;5067515;28;20425;-75
2023/05/23 07:55:34;;;;;;;1999.90;999.90;;;16.60;99.90;;;;;;5069337;28;20485;-75
2023/05/23 07:58:01;;;;;;;1999.90;999.90;;;16.60;99.90;;;;;;5069871;28;20408;-74
2023/05/23 08:00:28;;;;;;;1999.90;999.90;;;16.70;99.90;;;;;;5072833;28;20423;-75
2023/05/23 08:02:56;;;;;;;1999.90;999.90;;;16.60;99.90;;;;;;5071997;28;20427;-74
2023/05/23 08:05:23;;;;;;;1999.90;999.90;;;16.70;99.90;;;;;;5084559;28;20413;-74
2023/05/23 08:07:49;;;;;;;1999.90;999.90;;;16.70;99.90;;;;;;5087351;28;20430;-74
2023/05/23 08:10:16;;;;;;;1999.90;999.90;;;16.70;99.90;;;;;;5084335;28;20417;-74
2023/05/23 08:12:42;;;;;;;1999.90;999.90;;;16.70;99.90;;;;;;5092985;28;20467;-75
2023/05/23 08:15:10;;;;;;;1999.90;999.90;;;16.50;99.90;;;;;;5086826;28;20829;-75
2023/05/23 08:17:37;;;;;;;1999.90;999.90;;;16.50;99.90;;;;;;5083920;28;20502;-75
2023/05/23 08:20:06;;;;;;;1999.90;999.90;;;16.50;99.90;;;;;;5092790;28;20405;-75
2023/05/23 08:22:32;;;;;;;1999.90;999.90;;;16.60;99.90;;;;;;5092580;28;20414;-72
2023/05/23 08:24:59;;;;;;;1999.90;999.90;;;16.50;99.90;;;;;;5087214;28;20783;-75
2023/05/23 08:27:26;;;;;;;1999.90;999.90;;;16.50;99.90;;;;;;5083499;28;20934;-75
2023/05/23 08:29:52;;;;;;;1999.90;999.90;;;16.50;99.90;;;;;;5092663;28;20405;-74
2023/05/23 08:32:19;;;;;;;1999.90;999.90;;;16.50;99.90;;;;;;5092473;28;20418;-74
2023/05/23 08:34:45;;;;;;;1999.90;999.90;;;16.60;99.90;;;;;;5092514;28;20406;-75
2023/05/23 08:37:13;;;;;;;1999.90;999.90;;;16.50;99.90;;;;;;5088398;28;20500;-74
2023/05/23 08:39:40;;;;;;;1999.90;999.90;;;16.50;99.90;;;;;;5080096;28;20457;-75
2023/05/23 08:42:07;;;;;;;1999.90;999.90;;;16.50;99.90;;;;;;5090488;28;20413;-74
2023/05/23 08:44:34;;;;;;;1999.90;999.90;;;16.50;99.90;;;;;;5092048;28;20463;-72
2023/05/23 08:47:05;;;;;;;1999.90;999.90;;;16.20;99.90;;;;;;5091808;28;20496;-74
2023/05/23 08:49:32;;;;;;;1999.90;999.90;;;16.10;99.90;;;;;;5088268;28;20428;-74
2023/05/23 08:52:02;;;;;;;1999.90;999.90;;;16.00;99.90;;;;;;5083775;28;20412;-74
2023/05/23 08:54:31;;;;;;;1999.90;999.90;;;16.00;99.90;;;;;;5091905;28;20409;-74
2023/05/23 08:56:58;;;;;;;1999.90;999.90;;;16.00;99.90;;;;;;5092004;28;20527;-74
2023/05/23 08:59:26;;;;;;;1999.90;999.90;;;15.80;99.90;;;;;;5091870;28;20458;-74
2023/05/23 09:01:55;;;;;;;1999.90;999.90;;;15.80;99.90;;;;;;5082555;28;20428;-74
2023/05/23 09:04:21;;;;;;;1999.90;999.90;;;15.90;99.90;;;;;;5071773;28;20772;-75
2023/05/23 09:06:48;;;;;;;1999.90;999.90;;;16.00;99.90;;;;;;5071224;28;20407;-72
2023/05/23 09:09:15;;;;;;;1999.90;999.90;;;16.00;99.90;;;;;;5071483;28;20455;-75
2023/05/23 09:11:44;;;;;;;1999.90;999.90;;;16.20;99.90;;;;;;5070425;28;20770;-72
2023/05/23 09:14:13;;;;;;;1999.90;999.90;;;16.10;99.90;;;;;;5081975;28;20416;-72
2023/05/23 09:16:39;;;;;;;1999.90;999.90;;;16.00;99.90;;;;;;5091065;28;20891;-74
2023/05/23 09:19:14;;;;;;;1999.90;999.90;;;15.80;99.90;;;;;;5091746;28;20410;-75
2023/05/23 09:21:43;;;;;;;1999.90;999.90;;;15.60;99.90;;;;;;5091311;28;20443;-74
2023/05/23 09:24:10;;;;;;;1999.90;999.90;;;15.50;99.90;;;;;;5082681;28;20515;-74
2023/05/23 09:26:38;;;;;;;1999.90;999.90;;;15.40;99.90;;;;;;5082646;28;20414;-74
2023/05/23 09:29:07;;;;;;;1999.90;999.90;;;15.30;99.90;;;;;;5091429;28;20484;-70
2023/05/23 09:31:34;;;;;;;1999.90;999.90;;;15.20;99.90;;;;;;5091443;28;20421;-71
2023/05/23 09:34:00;;;;;;;1999.90;999.90;;;15.10;99.90;;;;;;5091617;28;20414;-75
2023/05/23 09:36:29;;;;;;;1999.90;999.90;;;15.00;99.90;;;;;;5082274;28;20433;-77
2023/05/23 09:38:56;;;;;;;1999.90;999.90;;;14.90;99.90;;;;;;5083756;28;20509;-76
2023/05/23 09:41:23;;;;;;;1999.90;999.90;;;14.90;99.90;;;;;;5071622;28;20436;-72
2023/05/23 09:43:51;;;;;;;1999.90;999.90;;;14.80;99.90;;;;;;5072012;28;20996;-76
2023/05/23 09:46:20;;;;;;;1999.90;999.90;;;14.70;99.90;;;;;;5069392;28;20431;-75
2023/05/23 09:48:47;;;;;;;1999.90;999.90;;;14.60;99.90;;;;;;5067165;28;20455;-74
2023/05/23 09:51:13;;;;;;;1999.90;999.90;;;14.60;99.90;;;;;;5069561;28;20427;-74
2023/05/23 09:53:40;;;;;;;1999.90;999.90;;;14.70;99.90;;;;;;5069530;28;20436;-74
2023/05/23 09:56:11;;;;;;;1999.90;999.90;;;14.70;99.90;;;;;;5068279;28;20515;-76
2023/05/23 09:58:39;;;;;;;1999.90;999.90;;;14.60;99.90;;;;;;5067565;28;20442;-74
2023/05/23 10:01:10;;;;;;;1999.90;999.90;;;14.50;99.90;;;;;;5066544;28;20424;-74
2023/05/23 10:03:45;;;;;;;1999.90;999.90;;;14.50;99.90;;;;;;5063356;28;20427;-76
2023/05/23 10:06:18;;;;;;;1999.90;999.90;;;14.40;99.90;;;;;;5069416;28;20408;-76
2023/05/23 10:08:49;;;;;;;1999.90;999.90;;;14.30;99.90;;;;;;5069753;28;20423;-76
2023/05/23 10:11:49;;;;;;;1999.90;999.90;;;14.30;99.90;;;;;;5071219;28;20922;-76
2023/05/23 10:14:18;;;;;;;1999.90;999.90;;;14.10;99.90;;;;;;5073861;28;20442;-76
2023/05/23 10:16:58;;;;;;;1999.90;999.90;;;14.00;99.90;;;;;;5071217;28;21261;-75
2023/05/23 10:19:33;;;;;;;1999.90;999.90;;;13.90;99.90;;;;;;5066629;28;20844;-77
2023/05/23 10:22:03;;;;;;;1999.90;999.90;;;13.80;99.90;;;;;;5068323;22;20499;-73
2023/05/23 10:24:30;;;;;;;1999.90;999.90;;;13.80;99.90;;;;;;5048399;28;20920;-72
2023/05/23 10:26:57;;;;;;;1999.90;999.90;;;14.00;99.90;;;;;;5058158;28;20559;-72
2023/05/23 10:29:25;;;;;;;1999.90;999.90;;;14.00;99.90;;;;;;5051666;28;20440;-72
2023/05/23 10:31:53;;;;;;;1999.90;999.90;;;14.00;99.90;;;;;;5054051;28;20900;-70
2023/05/23 10:34:29;;;;;;;1999.90;999.90;;;14.00;99.90;;;;;;5031756;28;20469;-72
2023/05/23 10:37:01;;;;;;;1999.90;999.90;;;14.00;99.90;;;;;;5027166;28;20481;-72
2023/05/23 10:39:37;;;;;;;1999.90;999.90;;;14.10;99.90;;;;;;5027572;28;20433;-71
2023/05/23 10:42:10;;;;;;;1999.90;999.90;;;14.00;99.90;;;;;;5028557;28;20433;-72
2023/05/23 10:44:36;;;;;;;1999.90;999.90;;;14.00;99.90;;;;;;5044638;28;20484;-72
2023/05/23 10:47:04;;;;;;;1999.90;999.90;;;14.00;99.90;;;;;;5027736;28;20486;-72
2023/05/23 10:49:43;;;;;;;1999.90;999.90;;;13.90;99.90;;;;;;5029887;28;20407;-72
2023/05/23 10:52:11;;;;;;;1999.90;999.90;;;13.90;99.90;;;;;;5030017;28;20445;-72
2023/05/23 10:54:42;;;;;;;1999.90;999.90;;;13.80;99.90;;;;;;5027900;28;20423;-72
2023/05/23 10:57:10;;;;;;;1999.90;999.90;;;13.80;99.90;;;;;;5019254;28;20460;-69
2023/05/23 10:59:39;;;;;;;1999.90;999.90;;;13.70;99.90;;;;;;5029735;28;20427;-70
2023/05/23 11:02:12;;;;;;;1999.90;999.90;;;13.60;99.90;;;;;;5021875;28;20432;-70
2023/05/23 11:04:38;;;;;;;1999.90;999.90;;;13.60;99.90;;;;;;5023670;28;20431;-71
2023/05/23 11:07:29;;;;;;;1999.90;999.90;;;13.60;99.90;;;;;;5023613;28;20435;-70
2023/05/23 11:10:10;;;;;;;1999.90;999.90;;;13.60;99.90;;;;;;5033645;28;20780;-70
2023/05/23 11:12:37;;;;;;;1999.90;999.90;;;13.60;99.90;;;;;;5033801;28;20423;-70
2023/05/23 11:15:20;;;;;;;1999.90;999.90;;;13.50;99.90;;;;;;5027711;28;20863;-70
2023/05/23 11:17:51;;;;;;;1999.90;999.90;;;13.30;99.90;;;;;;5023388;28;20430;-69
2023/05/23 11:20:22;;;;;;;1999.90;999.90;;;13.20;99.90;;;;;;5027552;28;20511;-69
2023/05/23 11:22:58;;;;;;;1999.90;999.90;;;13.10;99.90;;;;;;5031179;28;20526;-68
2023/05/23 11:25:40;;;;;;;1999.90;999.90;;;12.90;99.90;;;;;;5029551;28;20445;-65
2023/05/23 11:28:07;;;;;;;1999.90;999.90;;;12.90;99.90;;;;;;5035740;28;20443;-67
2023/05/23 11:30:36;;;;;;;1999.90;999.90;;;12.90;99.90;;;;;;5043878;28;20520;-67
2023/05/23 11:33:08;;;;;;;1999.90;999.90;;;12.90;99.90;;;;;;5019782;28;20430;-70
2023/05/23 11:35:35;;;;;;;1999.90;999.90;;;12.90;99.90;;;;;;5033894;28;20591;-70
2023/05/23 11:38:05;;;;;;;1999.90;999.90;;;12.90;99.90;;;;;;5031194;28;20529;-69
2023/05/23 11:40:33;;;;;;;1999.90;999.90;;;12.80;99.90;;;;;;5034497;28;20814;-70
2023/05/23 11:43:00;;;;;;;1999.90;999.90;;;12.90;99.90;;;;;;5044456;28;20919;-70
2023/05/23 11:45:30;;;;;;;1999.90;999.90;;;12.80;99.90;;;;;;5026332;28;20444;-69
2023/05/23 11:47:57;;;;;;;1999.90;999.90;;;12.80;99.90;;;;;;5027566;28;20442;-69
2023/05/23 11:50:24;;;;;;;1999.90;999.90;;;12.80;99.90;;;;;;5033626;28;20430;-68
2023/05/23 11:52:51;;;;;;;1999.90;999.90;;;12.90;99.90;;;;;;5036054;28;20512;-70
2023/05/23 11:55:19;;;;;;;1999.90;999.90;;;12.80;99.90;;;;;;5020876;28;20997;-70
2023/05/23 11:57:46;;;;;;;1999.90;999.90;;;12.80;99.90;;;;;;5032182;28;20435;-70
2023/05/23 12:00:14;;;;;;;1999.90;999.90;;;12.80;99.90;;;;;;5021738;28;20504;-67
2023/05/23 12:02:42;;;;;;;1999.90;999.90;;;12.70;99.90;;;;;;5030021;28;20444;-67